Green Valley, Arizona
Current Conditions -  °F | °C
As of 6:53 AM on Saturday 22 Nov 2014 (Local Time) from KTUS Reporting Station
Clear Clear  
Wind Chill: 35°   Ceiling: Unl
Heat Index: 41°   Visibility: 10mi
Dew Point: 34°   Wind: 9mph
Humidity: 76%   Direction: 150°SSE
Pressure: 30.1"   Gusts: NA
Location:  31.91°N, 110.98°W
Report Text: KTUS 221353Z 15008KT 10SM CLR 05/01 A3010 RMK AO2 SLP179 T00500011
Loading
Personal Weather Stations






























Interactive Weather Map New forecast layout! Learn more

10-Day Weather Forecast

Advertisements
Track Severe Weather on mobile